Time;durP1;ratioP1;P1;durP2;ratioP2;P2;SDS_P1;SDS_P2;PMS_P1;PMS_P2;Temp;Humidity;BMP_temperature;BMP_pressure;BME280_temperature;BME280_humidity;BME280_pressure;Samples;Min_cycle;Max_cycle;Signal;HPM_P1;HPM_P2
2022/11/30 00:00:14;;;;;;;54.03;33.80;;;;;;;;;;5075671;28;20665;-62
2022/11/30 00:02:42;;;;;;;53.08;33.40;;;;;;;;;;5075548;28;20192;-62
2022/11/30 00:05:11;;;;;;;47.70;31.48;;;;;;;;;;5075360;28;20214;-62
2022/11/30 00:07:38;;;;;;;52.97;34.67;;;;;;;;;;5075496;28;20196;-62
2022/11/30 00:10:06;;;;;;;54.00;35.50;;;;;;;;;;5075594;28;20191;-63
2022/11/30 00:12:33;;;;;;;55.22;35.10;;;;;;;;;;5075258;28;20645;-62
2022/11/30 00:15:00;;;;;;;48.53;33.00;;;;;;;;;;5075249;28;20216;-62
2022/11/30 00:17:30;;;;;;;54.60;36.10;;;;;;;;;;5075243;28;20198;-62
2022/11/30 00:19:57;;;;;;;59.70;36.00;;;;;;;;;;5075227;28;20579;-62
2022/11/30 00:22:25;;;;;;;55.75;33.80;;;;;;;;;;5074605;28;20196;-62
2022/11/30 00:24:52;;;;;;;62.47;36.70;;;;;;;;;;5074471;28;20192;-62
2022/11/30 00:27:19;;;;;;;58.53;35.50;;;;;;;;;;5074511;28;20609;-62
2022/11/30 00:29:46;;;;;;;56.50;35.28;;;;;;;;;;5074571;28;20277;-62
2022/11/30 00:32:13;;;;;;;59.13;34.55;;;;;;;;;;5074155;28;20333;-62
2022/11/30 00:34:40;;;;;;;56.85;35.72;;;;;;;;;;5074057;28;20202;-62
2022/11/30 00:37:07;;;;;;;62.53;37.30;;;;;;;;;;5074247;28;20189;-62
2022/11/30 00:39:35;;;;;;;61.08;36.15;;;;;;;;;;5074091;28;20578;-62
2022/11/30 00:42:02;;;;;;;59.97;36.25;;;;;;;;;;5074104;28;20191;-62
2022/11/30 00:44:29;;;;;;;63.00;37.58;;;;;;;;;;5074028;28;20197;-62
2022/11/30 00:46:56;;;;;;;52.38;34.45;;;;;;;;;;5073975;28;20223;-62
2022/11/30 00:49:23;;;;;;;58.78;37.78;;;;;;;;;;5074020;28;20294;-62
2022/11/30 00:51:49;;;;;;;54.65;34.40;;;;;;;;;;5074183;28;20193;-62
2022/11/30 00:54:16;;;;;;;56.10;37.15;;;;;;;;;;5073899;28;20196;-62
2022/11/30 00:56:45;;;;;;;62.75;34.95;;;;;;;;;;5073747;28;20194;-62
2022/11/30 00:59:12;;;;;;;57.58;35.40;;;;;;;;;;5073664;28;20578;-62
2022/11/30 01:01:38;;;;;;;57.97;35.80;;;;;;;;;;5073634;28;20237;-62
2022/11/30 01:04:06;;;;;;;59.85;35.22;;;;;;;;;;5073925;28;20213;-62
2022/11/30 01:06:32;;;;;;;54.92;35.38;;;;;;;;;;5073509;28;20738;-62
2022/11/30 01:09:01;;;;;;;52.90;35.70;;;;;;;;;;5073672;28;20202;-62
2022/11/30 01:11:29;;;;;;;57.33;36.20;;;;;;;;;;5073541;28;20188;-62
2022/11/30 01:13:58;;;;;;;58.15;36.78;;;;;;;;;;5073408;28;20204;-62
2022/11/30 01:16:26;;;;;;;55.90;37.15;;;;;;;;;;5073351;28;20282;-62
2022/11/30 01:18:53;;;;;;;56.97;36.53;;;;;;;;;;5073388;28;20570;-62
2022/11/30 01:21:22;;;;;;;54.70;36.28;;;;;;;;;;5073477;28;20207;-62
2022/11/30 01:23:49;;;;;;;63.50;38.15;;;;;;;;;;5073344;28;20194;-62
2022/11/30 01:26:17;;;;;;;54.38;33.97;;;;;;;;;;5073218;28;20192;-62
2022/11/30 01:28:44;;;;;;;58.90;36.40;;;;;;;;;;5073150;28;20191;-62
2022/11/30 01:31:13;;;;;;;57.17;38.28;;;;;;;;;;5073362;28;20267;-62
2022/11/30 01:33:41;;;;;;;59.03;37.17;;;;;;;;;;5073283;28;20227;-62
2022/11/30 01:36:10;;;;;;;60.97;37.83;;;;;;;;;;5073174;28;20200;-62
2022/11/30 01:38:39;;;;;;;59.60;36.10;;;;;;;;;;5072994;28;20579;-62
2022/11/30 01:41:06;;;;;;;57.05;37.53;;;;;;;;;;5072995;28;20278;-62
2022/11/30 01:43:38;;;;;;;54.67;34.28;;;;;;;;;;5073185;28;20290;-62
2022/11/30 01:46:05;;;;;;;53.20;36.00;;;;;;;;;;5073209;28;20560;-62
2022/11/30 01:48:34;;;;;;;61.30;37.35;;;;;;;;;;5072803;28;20409;-62
2022/11/30 01:51:00;;;;;;;56.45;35.85;;;;;;;;;;5073141;28;20618;-62
2022/11/30 01:53:27;;;;;;;57.63;36.08;;;;;;;;;;5073052;28;20203;-62
2022/11/30 01:55:54;;;;;;;62.05;37.10;;;;;;;;;;5072783;28;20624;-62
2022/11/30 01:58:26;;;;;;;61.50;36.40;;;;;;;;;;5073173;28;20198;-62
2022/11/30 02:00:53;;;;;;;58.13;37.90;;;;;;;;;;5072728;28;20196;-62
2022/11/30 02:03:22;;;;;;;64.30;37.35;;;;;;;;;;5072859;28;20196;-62
2022/11/30 02:05:50;;;;;;;60.53;37.75;;;;;;;;;;5072783;28;20195;-62
2022/11/30 02:08:17;;;;;;;59.95;36.30;;;;;;;;;;5072870;28;20227;-62
2022/11/30 02:10:45;;;;;;;60.55;38.35;;;;;;;;;;5072887;28;20287;-62
2022/11/30 02:13:31;;;;;;;59.30;36.90;;;;;;;;;;5072971;28;20283;-62
2022/11/30 02:16:02;;;;;;;62.83;37.20;;;;;;;;;;5072793;28;20248;-62
2022/11/30 02:18:32;;;;;;;57.65;36.83;;;;;;;;;;5072585;28;20677;-62
2022/11/30 02:21:06;;;;;;;58.70;35.97;;;;;;;;;;5072615;28;20202;-62
2022/11/30 02:23:51;;;;;;;56.70;36.80;;;;;;;;;;5072773;28;20535;-62
2022/11/30 02:26:27;;;;;;;61.20;37.60;;;;;;;;;;5072514;28;20284;-62
2022/11/30 02:29:03;;;;;;;59.30;35.30;;;;;;;;;;5072619;28;20544;-62
2022/11/30 02:31:36;;;;;;;57.15;36.78;;;;;;;;;;5072472;28;20195;-62
2022/11/30 02:34:03;;;;;;;58.58;37.25;;;;;;;;;;5072653;28;20188;-62
2022/11/30 02:36:30;;;;;;;51.28;34.85;;;;;;;;;;5072609;28;20211;-62
2022/11/30 02:38:58;;;;;;;61.78;37.88;;;;;;;;;;5072428;28;20216;-62
2022/11/30 02:41:25;;;;;;;53.17;34.25;;;;;;;;;;5072497;28;20305;-62
2022/11/30 02:43:52;;;;;;;57.33;35.42;;;;;;;;;;5072645;28;20192;-62
2022/11/30 02:46:23;;;;;;;54.20;35.22;;;;;;;;;;5072454;28;20220;-63
2022/11/30 02:48:57;;;;;;;61.28;35.55;;;;;;;;;;5072571;28;20202;-62
2022/11/30 02:51:26;;;;;;;59.20;36.35;;;;;;;;;;5072544;28;20199;-62
2022/11/30 02:53:54;;;;;;;63.15;36.35;;;;;;;;;;5072287;28;20270;-62
2022/11/30 02:56:22;;;;;;;61.38;37.38;;;;;;;;;;5072163;28;20280;-62
2022/11/30 02:58:49;;;;;;;58.17;36.60;;;;;;;;;;5072382;28;20215;-63
2022/11/30 03:01:16;;;;;;;63.58;39.25;;;;;;;;;;5072397;28;20195;-61
2022/11/30 03:03:44;;;;;;;65.55;38.92;;;;;;;;;;5072341;28;20282;-61
2022/11/30 03:06:11;;;;;;;54.33;34.90;;;;;;;;;;5072331;28;20207;-61
2022/11/30 03:08:38;;;;;;;59.58;37.60;;;;;;;;;;5072141;28;20188;-62
2022/11/30 03:11:05;;;;;;;57.20;37.15;;;;;;;;;;5072372;28;20191;-61
2022/11/30 03:13:32;;;;;;;57.22;35.65;;;;;;;;;;5075651;28;20202;-62
2022/11/30 03:15:59;;;;;;;60.85;38.05;;;;;;;;;;5075984;28;20287;-61
2022/11/30 03:18:26;;;;;;;58.97;36.17;;;;;;;;;;5075684;28;20210;-61
2022/11/30 03:20:54;;;;;;;51.60;35.25;;;;;;;;;;5075587;28;20220;-61
2022/11/30 03:23:21;;;;;;;56.45;35.67;;;;;;;;;;5075465;28;20192;-61
2022/11/30 03:25:48;;;;;;;58.92;36.30;;;;;;;;;;5075676;28;20278;-61
2022/11/30 03:28:15;;;;;;;63.65;36.53;;;;;;;;;;5075641;28;20616;-61
2022/11/30 03:30:48;;;;;;;59.67;36.60;;;;;;;;;;5075513;28;20249;-61
2022/11/30 03:33:15;;;;;;;62.95;38.22;;;;;;;;;;5075424;28;20287;-61
2022/11/30 03:35:42;;;;;;;56.25;35.10;;;;;;;;;;5075243;28;20191;-62
2022/11/30 03:38:11;;;;;;;62.13;36.05;;;;;;;;;;5075636;28;20282;-62
2022/11/30 03:40:38;;;;;;;60.85;36.22;;;;;;;;;;5075348;28;20219;-61
2022/11/30 03:43:05;;;;;;;59.67;36.85;;;;;;;;;;5075329;28;20554;-61
2022/11/30 03:45:32;;;;;;;60.00;36.38;;;;;;;;;;5075289;28;20246;-61
2022/11/30 03:47:59;;;;;;;58.65;37.03;;;;;;;;;;5075097;28;20227;-61
2022/11/30 03:50:25;;;;;;;55.83;37.00;;;;;;;;;;5074970;28;20188;-61
2022/11/30 03:52:52;;;;;;;58.05;35.90;;;;;;;;;;5075165;28;20279;-61
2022/11/30 03:55:21;;;;;;;61.40;36.90;;;;;;;;;;5075185;28;20191;-61
2022/11/30 03:57:47;;;;;;;62.50;36.97;;;;;;;;;;5075028;28;20194;-61
2022/11/30 04:00:15;;;;;;;56.83;37.35;;;;;;;;;;5074737;28;20712;-61
2022/11/30 04:02:42;;;;;;;57.13;35.80;;;;;;;;;;5074793;28;20222;-62
2022/11/30 04:05:09;;;;;;;60.60;37.47;;;;;;;;;;5074786;28;20220;-61
2022/11/30 04:07:36;;;;;;;61.50;38.03;;;;;;;;;;5074880;28;20191;-62
2022/11/30 04:10:03;;;;;;;61.72;37.60;;;;;;;;;;5075096;28;20193;-61
2022/11/30 04:12:32;;;;;;;61.95;36.80;;;;;;;;;;5074660;28;20289;-61
2022/11/30 04:14:58;;;;;;;66.95;39.30;;;;;;;;;;5074626;28;20648;-61
2022/11/30 04:17:25;;;;;;;69.57;40.45;;;;;;;;;;5074423;28;20192;-61
2022/11/30 04:19:52;;;;;;;62.25;38.90;;;;;;;;;;5074534;28;20306;-61
2022/11/30 04:22:19;;;;;;;59.83;37.85;;;;;;;;;;5074211;28;20282;-61
2022/11/30 04:24:46;;;;;;;59.45;37.67;;;;;;;;;;5074552;28;20282;-61
2022/11/30 04:27:13;;;;;;;57.30;37.75;;;;;;;;;;5074505;28;20668;-61
2022/11/30 04:29:41;;;;;;;63.80;39.67;;;;;;;;;;5074539;28;20203;-61
2022/11/30 04:32:08;;;;;;;58.42;35.58;;;;;;;;;;5074471;28;20283;-62
2022/11/30 04:34:35;;;;;;;61.72;37.25;;;;;;;;;;5074816;28;20596;-61
2022/11/30 04:37:02;;;;;;;62.47;36.70;;;;;;;;;;5074428;28;20191;-61
2022/11/30 04:39:29;;;;;;;56.42;38.13;;;;;;;;;;5074353;28;20302;-61
2022/11/30 04:41:56;;;;;;;59.92;37.25;;;;;;;;;;5074207;28;20222;-61
2022/11/30 04:44:22;;;;;;;63.20;38.42;;;;;;;;;;5074008;28;20198;-62
2022/11/30 04:46:51;;;;;;;60.17;37.35;;;;;;;;;;5073895;28;20246;-61
2022/11/30 04:49:18;;;;;;;64.50;39.05;;;;;;;;;;5074087;28;20282;-62
2022/11/30 04:51:44;;;;;;;62.67;38.45;;;;;;;;;;5074064;28;20194;-61
2022/11/30 04:54:11;;;;;;;58.17;35.88;;;;;;;;;;5073906;28;20191;-61
2022/11/30 04:56:38;;;;;;;58.47;35.83;;;;;;;;;;5073837;28;20618;-61
2022/11/30 04:59:05;;;;;;;60.40;38.38;;;;;;;;;;5073730;28;20314;-62
2022/11/30 05:01:32;;;;;;;59.97;38.25;;;;;;;;;;5073926;28;20615;-61
2022/11/30 05:04:00;;;;;;;53.92;37.13;;;;;;;;;;5074017;28;20192;-62
2022/11/30 05:06:27;;;;;;;61.22;38.35;;;;;;;;;;5073829;28;20195;-61
2022/11/30 05:08:54;;;;;;;59.22;37.35;;;;;;;;;;5073783;28;20191;-61
2022/11/30 05:11:21;;;;;;;61.10;37.45;;;;;;;;;;5073989;28;20294;-61
2022/11/30 05:13:49;;;;;;;59.30;37.20;;;;;;;;;;5073410;28;20278;-61
2022/11/30 05:16:17;;;;;;;60.75;38.55;;;;;;;;;;5073574;28;20277;-61
2022/11/30 05:18:43;;;;;;;59.30;35.53;;;;;;;;;;5073494;28;20711;-61
2022/11/30 05:21:12;;;;;;;60.60;37.83;;;;;;;;;;5073602;28;20226;-61
2022/11/30 05:23:39;;;;;;;66.28;36.85;;;;;;;;;;5073707;28;20203;-61
2022/11/30 05:26:06;;;;;;;62.50;38.50;;;;;;;;;;5073319;28;20281;-62
2022/11/30 05:28:33;;;;;;;56.75;35.95;;;;;;;;;;5073209;28;20717;-61
2022/11/30 05:31:03;;;;;;;63.03;35.92;;;;;;;;;;5073317;28;20283;-62
2022/11/30 05:33:31;;;;;;;62.00;37.53;;;;;;;;;;5073204;28;20191;-61
2022/11/30 05:35:58;;;;;;;62.92;39.33;;;;;;;;;;5072407;28;20278;-61
2022/11/30 05:38:26;;;;;;;53.60;35.97;;;;;;;;;;5073436;28;20191;-61
2022/11/30 05:40:53;;;;;;;56.22;36.83;;;;;;;;;;5072862;28;20774;-62
2022/11/30 05:43:20;;;;;;;64.47;38.40;;;;;;;;;;5073421;28;20196;-61
2022/11/30 05:45:47;;;;;;;60.33;36.78;;;;;;;;;;5073271;28;20192;-61
2022/11/30 05:48:13;;;;;;;61.97;37.60;;;;;;;;;;5072823;28;20253;-61
2022/11/30 05:50:40;;;;;;;61.75;37.85;;;;;;;;;;5072999;28;20558;-61
2022/11/30 05:53:07;;;;;;;64.97;39.78;;;;;;;;;;5072871;28;20286;-62
2022/11/30 05:55:35;;;;;;;58.40;35.45;;;;;;;;;;5073166;28;20290;-61
2022/11/30 05:58:02;;;;;;;64.72;38.88;;;;;;;;;;5073115;28;20187;-61
2022/11/30 06:00:29;;;;;;;64.22;36.78;;;;;;;;;;5072891;28;20219;-61
2022/11/30 06:02:57;;;;;;;66.60;37.40;;;;;;;;;;5072859;28;20202;-61
2022/11/30 06:05:23;;;;;;;61.17;37.15;;;;;;;;;;5072852;28;20559;-61
2022/11/30 06:07:50;;;;;;;60.55;35.55;;;;;;;;;;5072734;28;20227;-61
2022/11/30 06:10:18;;;;;;;53.53;36.00;;;;;;;;;;5072944;28;20621;-61
2022/11/30 06:12:47;;;;;;;56.58;35.20;;;;;;;;;;5072777;28;20248;-61
2022/11/30 06:15:14;;;;;;;66.15;37.80;;;;;;;;;;5072810;28;20285;-61
2022/11/30 06:17:41;;;;;;;64.45;38.60;;;;;;;;;;5072593;28;20718;-61
2022/11/30 06:20:08;;;;;;;59.28;37.25;;;;;;;;;;5072689;28;20226;-61
2022/11/30 06:22:35;;;;;;;58.22;38.35;;;;;;;;;;5073103;28;20281;-62
2022/11/30 06:25:02;;;;;;;55.20;34.78;;;;;;;;;;5072752;28;20283;-61
2022/11/30 06:27:31;;;;;;;60.47;37.17;;;;;;;;;;5072725;28;20187;-61
2022/11/30 06:30:01;;;;;;;60.05;36.70;;;;;;;;;;5072634;28;20191;-61
2022/11/30 06:32:28;;;;;;;58.22;35.53;;;;;;;;;;5072715;28;20230;-61
2022/11/30 06:34:55;;;;;;;54.45;34.70;;;;;;;;;;5072304;28;20197;-62
2022/11/30 06:37:22;;;;;;;56.83;37.75;;;;;;;;;;5072555;28;20282;-61
2022/11/30 06:39:49;;;;;;;56.85;37.25;;;;;;;;;;5072425;28;20287;-61
2022/11/30 06:42:18;;;;;;;58.50;37.28;;;;;;;;;;5072446;28;20744;-61
2022/11/30 06:44:45;;;;;;;62.13;35.97;;;;;;;;;;5072419;28;20187;-61
2022/11/30 06:47:13;;;;;;;59.97;36.75;;;;;;;;;;5075065;28;20627;-61
2022/11/30 06:49:40;;;;;;;55.25;35.55;;;;;;;;;;5075988;28;20287;-61
2022/11/30 06:52:07;;;;;;;64.15;37.47;;;;;;;;;;5076229;28;20195;-61
2022/11/30 06:54:34;;;;;;;60.33;35.45;;;;;;;;;;5076383;28;20282;-62
2022/11/30 06:57:01;;;;;;;58.33;34.75;;;;;;;;;;5075930;28;20191;-61
2022/11/30 06:59:28;;;;;;;67.80;36.92;;;;;;;;;;5075909;28;20650;-61
2022/11/30 07:01:56;;;;;;;60.90;36.95;;;;;;;;;;5075652;28;20240;-62
2022/11/30 07:04:24;;;;;;;59.88;37.08;;;;;;;;;;5075964;28;20282;-61
2022/11/30 07:06:51;;;;;;;58.83;37.38;;;;;;;;;;5075520;28;20286;-61
2022/11/30 07:09:18;;;;;;;59.60;35.58;;;;;;;;;;5075810;28;20283;-61
2022/11/30 07:11:45;;;;;;;66.28;39.38;;;;;;;;;;5075669;28;20196;-61
2022/11/30 07:14:12;;;;;;;64.50;35.50;;;;;;;;;;5075688;28;20625;-61
2022/11/30 07:16:39;;;;;;;64.40;38.67;;;;;;;;;;5075431;28;20282;-61
2022/11/30 07:19:06;;;;;;;58.67;35.78;;;;;;;;;;5075785;28;20187;-62
2022/11/30 07:21:34;;;;;;;66.15;37.70;;;;;;;;;;5075838;28;20579;-61
2022/11/30 07:26:46;;;;;;;56.65;33.80;;;;;;;;;;5075389;28;20597;-61
2022/11/30 07:29:13;;;;;;;62.40;36.63;;;;;;;;;;5075350;28;20288;-62
2022/11/30 07:31:40;;;;;;;54.60;33.83;;;;;;;;;;5075445;28;20282;-61
2022/11/30 07:34:08;;;;;;;58.03;35.60;;;;;;;;;;5075223;28;20274;-61
2022/11/30 07:36:36;;;;;;;62.65;37.85;;;;;;;;;;5075297;28;20187;-61
2022/11/30 07:39:03;;;;;;;60.55;37.08;;;;;;;;;;5075084;28;20675;-61
2022/11/30 07:41:30;;;;;;;54.92;35.25;;;;;;;;;;5075017;28;20837;-62
2022/11/30 07:43:58;;;;;;;55.40;35.00;;;;;;;;;;5075125;28;20192;-61
2022/11/30 07:46:25;;;;;;;64.63;36.28;;;;;;;;;;5074953;28;20293;-62
2022/11/30 07:48:52;;;;;;;51.30;32.75;;;;;;;;;;5074983;28;20193;-61
2022/11/30 07:51:19;;;;;;;57.38;35.38;;;;;;;;;;5074793;28;20616;-61
2022/11/30 07:53:48;;;;;;;62.95;37.00;;;;;;;;;;5074853;28;20203;-62
2022/11/30 07:56:16;;;;;;;60.20;36.13;;;;;;;;;;5074530;28;20194;-62
2022/11/30 07:58:43;;;;;;;58.47;35.45;;;;;;;;;;5073996;28;20192;-62
2022/11/30 08:01:11;;;;;;;56.08;34.47;;;;;;;;;;5074820;28;20227;-62
2022/11/30 08:03:38;;;;;;;58.75;34.55;;;;;;;;;;5074770;28;20560;-62
2022/11/30 08:06:06;;;;;;;54.83;36.28;;;;;;;;;;5074798;28;20274;-62
2022/11/30 08:08:34;;;;;;;60.95;37.70;;;;;;;;;;5074649;28;20222;-62
2022/11/30 08:11:03;;;;;;;54.45;35.63;;;;;;;;;;5074751;28;20234;-61
2022/11/30 08:13:30;;;;;;;54.05;35.97;;;;;;;;;;5074760;28;20650;-61
2022/11/30 08:16:01;;;;;;;57.55;36.40;;;;;;;;;;5074609;28;20201;-61
2022/11/30 08:18:28;;;;;;;55.85;35.10;;;;;;;;;;5074339;28;20282;-61
2022/11/30 08:20:58;;;;;;;57.22;35.95;;;;;;;;;;5074253;28;20223;-61
2022/11/30 08:23:25;;;;;;;58.05;36.15;;;;;;;;;;5074197;28;20207;-61
2022/11/30 08:25:52;;;;;;;55.30;34.38;;;;;;;;;;5074453;28;20223;-61
2022/11/30 08:28:20;;;;;;;56.30;35.20;;;;;;;;;;5074388;28;20214;-61
2022/11/30 08:30:47;;;;;;;50.65;34.05;;;;;;;;;;5074268;28;20215;-61
2022/11/30 08:33:14;;;;;;;54.53;35.70;;;;;;;;;;5074090;28;20192;-61
2022/11/30 08:35:41;;;;;;;54.63;35.67;;;;;;;;;;5074090;28;20685;-62
2022/11/30 08:38:08;;;;;;;68.97;37.03;;;;;;;;;;5074292;28;20202;-61
2022/11/30 08:40:35;;;;;;;59.08;34.20;;;;;;;;;;5074288;28;20219;-61
2022/11/30 08:43:02;;;;;;;55.67;37.10;;;;;;;;;;5074220;28;20199;-61
2022/11/30 08:45:30;;;;;;;63.03;35.35;;;;;;;;;;5074087;28;20196;-61
2022/11/30 08:47:57;;;;;;;58.75;36.10;;;;;;;;;;5073624;28;20235;-61
2022/11/30 08:50:24;;;;;;;56.40;36.00;;;;;;;;;;5073758;28;20578;-61
2022/11/30 08:52:53;;;;;;;55.90;35.63;;;;;;;;;;5073924;28;20211;-61
2022/11/30 08:55:20;;;;;;;58.78;34.72;;;;;;;;;;5073854;28;20218;-63
2022/11/30 08:57:47;;;;;;;54.60;36.22;;;;;;;;;;5073711;28;20254;-62
2022/11/30 09:00:14;;;;;;;58.00;35.07;;;;;;;;;;5073743;28;20227;-62
2022/11/30 09:02:42;;;;;;;65.25;37.85;;;;;;;;;;5073631;28;20573;-62
2022/11/30 09:05:09;;;;;;;54.80;33.35;;;;;;;;;;5073528;28;20206;-62
2022/11/30 09:07:36;;;;;;;58.00;35.15;;;;;;;;;;5073768;28;20194;-62
2022/11/30 09:10:03;;;;;;;63.15;35.28;;;;;;;;;;5073564;28;20196;-62
2022/11/30 09:12:30;;;;;;;52.65;34.90;;;;;;;;;;5073577;28;20286;-61
2022/11/30 09:14:57;;;;;;;57.70;37.58;;;;;;;;;;5073371;28;20622;-61
2022/11/30 09:17:24;;;;;;;56.63;37.95;;;;;;;;;;5073170;28;20520;-62
2022/11/30 09:19:53;;;;;;;58.60;35.35;;;;;;;;;;5073468;28;20234;-61
2022/11/30 09:22:20;;;;;;;55.70;36.75;;;;;;;;;;5073252;28;20230;-61
2022/11/30 09:24:47;;;;;;;56.97;35.88;;;;;;;;;;5073218;28;20257;-61
2022/11/30 09:27:14;;;;;;;54.50;35.33;;;;;;;;;;5073194;28;20220;-61
2022/11/30 09:29:41;;;;;;;56.47;35.60;;;;;;;;;;5073198;28;20226;-61
2022/11/30 09:32:08;;;;;;;57.85;34.30;;;;;;;;;;5073026;28;20648;-61
2022/11/30 09:34:35;;;;;;;61.60;35.33;;;;;;;;;;5073237;28;20196;-61
2022/11/30 09:37:03;;;;;;;50.15;33.08;;;;;;;;;;5072900;28;20194;-61
2022/11/30 09:39:30;;;;;;;53.58;34.28;;;;;;;;;;5072997;28;20611;-61
2022/11/30 09:42:10;;;;;;;50.40;34.20;;;;;;;;;;5072888;28;20282;-61
2022/11/30 09:44:43;;;;;;;54.10;35.60;;;;;;;;;;5072857;28;20283;-61
2022/11/30 09:47:19;;;;;;;51.72;32.30;;;;;;;;;;5072783;28;20319;-62
2022/11/30 09:49:46;;;;;;;55.25;34.25;;;;;;;;;;5072792;28;20196;-63
2022/11/30 09:52:18;;;;;;;55.40;33.85;;;;;;;;;;5073286;28;20200;-62
2022/11/30 09:54:46;;;;;;;48.78;33.58;;;;;;;;;;5072877;28;20196;-62
2022/11/30 09:57:19;;;;;;;52.58;34.45;;;;;;;;;;5072699;28;20200;-61
2022/11/30 09:59:53;;;;;;;53.47;34.70;;;;;;;;;;5072860;28;20226;-62
2022/11/30 10:02:21;;;;;;;52.47;33.97;;;;;;;;;;5072773;28;20485;-61
2022/11/30 10:04:48;;;;;;;53.40;33.28;;;;;;;;;;5072801;28;20223;-61
2022/11/30 10:07:25;;;;;;;51.13;33.37;;;;;;;;;;5072786;28;20285;-61
2022/11/30 10:09:59;;;;;;;56.20;34.63;;;;;;;;;;5072799;28;20446;-61
2022/11/30 10:12:29;;;;;;;51.38;32.05;;;;;;;;;;5072798;28;20286;-61
2022/11/30 10:15:10;;;;;;;52.78;33.42;;;;;;;;;;5072739;28;20278;-61
2022/11/30 10:17:43;;;;;;;53.10;32.88;;;;;;;;;;5072686;28;20279;-61
2022/11/30 10:20:24;;;;;;;52.67;34.35;;;;;;;;;;5072499;28;20656;-61
2022/11/30 10:22:57;;;;;;;48.28;31.98;;;;;;;;;;5076699;28;20306;-62
2022/11/30 10:25:25;;;;;;;50.05;33.15;;;;;;;;;;5076635;28;20618;-62
2022/11/30 10:27:53;;;;;;;51.65;33.35;;;;;;;;;;5076530;28;20196;-62
2022/11/30 10:30:22;;;;;;;54.20;33.60;;;;;;;;;;5076330;28;20197;-62
2022/11/30 10:32:50;;;;;;;44.67;31.53;;;;;;;;;;5076496;28;20196;-62
2022/11/30 10:35:22;;;;;;;48.50;31.38;;;;;;;;;;5076497;28;20457;-62
2022/11/30 10:37:50;;;;;;;51.63;32.90;;;;;;;;;;5076384;28;20188;-62
2022/11/30 10:40:21;;;;;;;51.58;33.53;;;;;;;;;;5076183;28;20283;-62
2022/11/30 10:42:50;;;;;;;50.43;33.80;;;;;;;;;;5075885;28;20398;-62
2022/11/30 10:45:19;;;;;;;50.25;32.03;;;;;;;;;;5076241;28;20537;-62
2022/11/30 10:47:47;;;;;;;45.90;31.40;;;;;;;;;;5076079;28;20606;-62
2022/11/30 10:50:15;;;;;;;47.03;31.33;;;;;;;;;;5076309;28;20446;-61
2022/11/30 10:52:44;;;;;;;48.85;32.17;;;;;;;;;;5076259;28;20196;-62
2022/11/30 10:55:13;;;;;;;45.00;29.90;;;;;;;;;;5075985;28;20196;-62
2022/11/30 10:57:42;;;;;;;51.28;32.70;;;;;;;;;;5075904;28;20561;-62
2022/11/30 11:00:14;;;;;;;52.17;31.57;;;;;;;;;;5076105;28;20193;-62
2022/11/30 11:02:42;;;;;;;47.33;33.10;;;;;;;;;;5075909;28;20572;-62
2022/11/30 11:05:13;;;;;;;51.77;33.27;;;;;;;;;;5076047;28;20544;-62
2022/11/30 11:07:45;;;;;;;52.50;32.93;;;;;;;;;;5075789;28;20458;-62
2022/11/30 11:10:14;;;;;;;51.97;33.83;;;;;;;;;;5076011;28;20507;-62
2022/11/30 11:12:46;;;;;;;50.33;31.33;;;;;;;;;;5075864;28;20486;-62
2022/11/30 11:15:18;;;;;;;51.58;33.72;;;;;;;;;;5075652;28;20455;-62
2022/11/30 11:17:45;;;;;;;47.38;32.13;;;;;;;;;;5075755;28;20190;-62
2022/11/30 11:20:27;;;;;;;56.50;34.33;;;;;;;;;;5075599;28;20304;-63
2022/11/30 11:22:54;;;;;;;50.53;32.77;;;;;;;;;;5075645;28;20485;-62
2022/11/30 11:25:22;;;;;;;54.17;31.67;;;;;;;;;;5075675;28;20457;-62
2022/11/30 11:27:53;;;;;;;48.97;32.42;;;;;;;;;;5075385;28;20279;-62
2022/11/30 11:30:28;;;;;;;52.95;33.20;;;;;;;;;;5075454;28;20290;-62
2022/11/30 11:32:59;;;;;;;50.13;32.50;;;;;;;;;;5074171;28;20192;-62
2022/11/30 11:35:32;;;;;;;48.60;34.00;;;;;;;;;;5075363;28;20450;-62
2022/11/30 11:38:00;;;;;;;57.47;35.83;;;;;;;;;;5075073;28;20487;-62
2022/11/30 11:40:27;;;;;;;51.00;32.47;;;;;;;;;;5075238;28;20558;-62
2022/11/30 11:42:57;;;;;;;45.03;31.83;;;;;;;;;;5075239;28;20226;-62
2022/11/30 11:45:25;;;;;;;49.20;33.73;;;;;;;;;;5075125;28;20462;-62
2022/11/30 11:47:58;;;;;;;54.80;34.17;;;;;;;;;;5074970;28;20478;-62
2022/11/30 11:50:27;;;;;;;49.10;31.47;;;;;;;;;;5075312;28;20454;-62
2022/11/30 11:53:21;;;;;;;45.53;28.63;;;;;;;;;;5075104;28;20458;-62
2022/11/30 11:55:50;;;;;;;47.70;30.83;;;;;;;;;;5074875;28;20455;-62
2022/11/30 11:58:22;;;;;;;40.00;28.60;;;;;;;;;;5075092;28;20583;-62
2022/11/30 12:00:50;;;;;;;47.27;30.67;;;;;;;;;;5075054;28;20542;-62
2022/11/30 12:03:19;;;;;;;43.60;28.80;;;;;;;;;;5075073;28;20515;-61
2022/11/30 12:05:49;;;;;;;50.73;31.63;;;;;;;;;;5074912;28;20451;-62
2022/11/30 12:08:17;;;;;;;43.77;30.70;;;;;;;;;;5074711;28;20533;-62
2022/11/30 12:10:49;;;;;;;51.00;32.70;;;;;;;;;;5074933;28;20452;-62
2022/11/30 12:13:18;;;;;;;51.27;33.53;;;;;;;;;;5074883;28;20472;-62
2022/11/30 12:15:52;;;;;;;54.80;33.37;;;;;;;;;;5074623;28;20544;-62
2022/11/30 12:18:21;;;;;;;53.22;31.60;;;;;;;;;;5074436;28;21040;-62
2022/11/30 12:20:53;;;;;;;54.53;33.85;;;;;;;;;;5074522;28;20591;-62
2022/11/30 12:23:27;;;;;;;57.80;35.42;;;;;;;;;;5074609;28;20224;-61
2022/11/30 12:25:56;;;;;;;56.08;35.80;;;;;;;;;;5074507;28;20277;-62
2022/11/30 12:28:27;;;;;;;56.22;35.28;;;;;;;;;;5074465;28;20223;-61
2022/11/30 12:31:00;;;;;;;58.42;35.08;;;;;;;;;;5074202;28;20689;-61
2022/11/30 12:33:33;;;;;;;62.97;36.47;;;;;;;;;;5074458;28;20194;-62
2022/11/30 12:36:03;;;;;;;58.35;36.83;;;;;;;;;;5074319;28;20295;-62
2022/11/30 12:38:35;;;;;;;57.80;34.25;;;;;;;;;;5074161;28;20366;-62
2022/11/30 12:41:08;;;;;;;64.40;37.17;;;;;;;;;;5074174;28;20616;-62
2022/11/30 12:43:41;;;;;;;60.88;36.25;;;;;;;;;;5073856;28;20307;-62
2022/11/30 12:46:12;;;;;;;58.08;36.20;;;;;;;;;;5073825;28;20194;-62
2022/11/30 12:48:44;;;;;;;63.30;36.72;;;;;;;;;;5073761;28;20318;-62
2022/11/30 12:51:18;;;;;;;65.95;38.17;;;;;;;;;;5073791;28;20684;-62
2022/11/30 12:53:49;;;;;;;64.38;36.53;;;;;;;;;;5073778;28;20199;-61
2022/11/30 12:56:21;;;;;;;61.50;35.45;;;;;;;;;;5073516;28;20206;-62
2022/11/30 12:58:51;;;;;;;65.65;37.55;;;;;;;;;;5073707;28;20194;-61
2022/11/30 13:01:36;;;;;;;68.22;37.00;;;;;;;;;;5073627;28;20198;-62
2022/11/30 13:04:06;;;;;;;67.00;37.30;;;;;;;;;;5073811;28;20231;-62
2022/11/30 13:06:35;;;;;;;65.32;37.97;;;;;;;;;;5073641;28;20528;-62
2022/11/30 13:09:04;;;;;;;71.07;40.13;;;;;;;;;;5073596;28;20653;-62
2022/11/30 13:11:34;;;;;;;80.15;40.67;;;;;;;;;;5073815;28;20227;-62
2022/11/30 13:14:01;;;;;;;75.13;40.17;;;;;;;;;;5073394;28;20652;-62
2022/11/30 13:16:31;;;;;;;73.80;40.63;;;;;;;;;;5073416;28;20282;-62
2022/11/30 13:19:02;;;;;;;79.53;41.35;;;;;;;;;;5073283;28;20235;-62
2022/11/30 13:21:31;;;;;;;73.97;39.78;;;;;;;;;;5073182;28;20230;-62
2022/11/30 13:24:02;;;;;;;73.90;41.60;;;;;;;;;;5073566;28;20652;-62
2022/11/30 13:26:31;;;;;;;80.93;41.15;;;;;;;;;;5073199;28;20625;-62
2022/11/30 13:29:06;;;;;;;79.15;39.42;;;;;;;;;;5073234;28;20185;-61
2022/11/30 13:31:38;;;;;;;75.15;39.05;;;;;;;;;;5073281;28;20286;-62
2022/11/30 13:34:05;;;;;;;76.10;39.40;;;;;;;;;;5073295;28;20194;-61
2022/11/30 13:36:34;;;;;;;80.88;37.67;;;;;;;;;;5073106;28;20194;-61
2022/11/30 13:39:25;;;;;;;75.85;37.30;;;;;;;;;;5072992;28;20225;-62
2022/11/30 13:42:12;;;;;;;80.90;40.53;;;;;;;;;;5057663;28;20732;-63
2022/11/30 13:44:40;;;;;;;78.88;39.80;;;;;;;;;;5073020;28;20232;-63
2022/11/30 13:47:17;;;;;;;73.72;39.45;;;;;;;;;;5072723;28;20221;-61
2022/11/30 13:49:44;;;;;;;72.60;38.50;;;;;;;;;;5072937;28;20290;-61
2022/11/30 13:52:12;;;;;;;82.10;40.65;;;;;;;;;;5072760;28;20239;-62
2022/11/30 13:54:40;;;;;;;81.82;41.67;;;;;;;;;;5072693;28;20282;-62
2022/11/30 13:57:31;;;;;;;84.15;40.78;;;;;;;;;;5072474;28;20224;-62
2022/11/30 13:59:59;;;;;;;91.57;47.90;;;;;;;;;;5071974;28;20493;-62
2022/11/30 14:02:59;;;;;;;89.93;44.80;;;;;;;;;;5072764;28;20201;-62
2022/11/30 14:05:37;;;;;;;84.60;41.70;;;;;;;;;;5072790;28;20242;-62
2022/11/30 14:08:25;;;;;;;80.75;41.08;;;;;;;;;;5072734;28;20186;-62
2022/11/30 14:10:53;;;;;;;81.03;41.30;;;;;;;;;;5067683;28;20274;-62
2022/11/30 14:13:32;;;;;;;80.18;40.35;;;;;;;;;;5072438;28;20252;-62
2022/11/30 14:16:00;;;;;;;79.13;39.85;;;;;;;;;;5072700;28;20556;-62
2022/11/30 14:18:41;;;;;;;79.50;40.28;;;;;;;;;;5072616;28;20223;-61
2022/11/30 14:21:18;;;;;;;88.63;40.55;;;;;;;;;;5072786;28;20272;-61
2022/11/30 14:23:48;;;;;;;91.60;42.08;;;;;;;;;;5072353;28;20263;-62
2022/11/30 14:26:16;;;;;;;83.75;42.75;;;;;;;;;;5072743;28;20191;-62
2022/11/30 14:28:45;;;;;;;89.25;40.28;;;;;;;;;;5072535;28;20281;-62